sensor_id;sensor_type;location;lat;lon;timestamp;temperature;humidity
16417;DHT22;8317;52.186;5.688;2023-08-21T00:01:12;18.50;99.90
16417;DHT22;8317;52.186;5.688;2023-08-21T00:03:39;18.60;99.90
16417;DHT22;8317;52.186;5.688;2023-08-21T00:06:06;18.60;99.90
16417;DHT22;8317;52.186;5.688;2023-08-21T00:08:33;18.60;99.90
16417;DHT22;8317;52.186;5.688;2023-08-21T00:11:00;18.60;99.90
16417;DHT22;8317;52.186;5.688;2023-08-21T00:13:28;18.50;99.90
16417;DHT22;8317;52.186;5.688;2023-08-21T00:15:55;18.40;99.90
16417;DHT22;8317;52.186;5.688;2023-08-21T00:18:22;18.40;99.90
16417;DHT22;8317;52.186;5.688;2023-08-21T00:20:49;18.40;99.90
16417;DHT22;8317;52.186;5.688;2023-08-21T00:23:15;18.40;99.90
16417;DHT22;8317;52.186;5.688;2023-08-21T00:25:46;18.40;99.90
16417;DHT22;8317;52.186;5.688;2023-08-21T00:28:13;18.30;99.90
16417;DHT22;8317;52.186;5.688;2023-08-21T00:30:42;18.40;99.90
16417;DHT22;8317;52.186;5.688;2023-08-21T00:33:09;18.40;99.90
16417;DHT22;8317;52.186;5.688;2023-08-21T00:35:36;18.40;99.90
16417;DHT22;8317;52.186;5.688;2023-08-21T00:38:06;18.40;99.90
16417;DHT22;8317;52.186;5.688;2023-08-21T00:40:36;18.40;99.90
16417;DHT22;8317;52.186;5.688;2023-08-21T00:43:03;18.40;99.90
16417;DHT22;8317;52.186;5.688;2023-08-21T00:45:30;18.30;99.90
16417;DHT22;8317;52.186;5.688;2023-08-21T00:47:58;18.30;99.90
16417;DHT22;8317;52.186;5.688;2023-08-21T00:50:25;18.30;99.90
16417;DHT22;8317;52.186;5.688;2023-08-21T00:52:52;18.30;99.90
16417;DHT22;8317;52.186;5.688;2023-08-21T00:55:19;18.30;99.90
16417;DHT22;8317;52.186;5.688;2023-08-21T00:57:46;18.30;99.90
16417;DHT22;8317;52.186;5.688;2023-08-21T01:00:13;18.30;99.90
16417;DHT22;8317;52.186;5.688;2023-08-21T01:02:40;18.30;99.90
16417;DHT22;8317;52.186;5.688;2023-08-21T01:05:11;18.30;99.90
16417;DHT22;8317;52.186;5.688;2023-08-21T01:07:47;18.30;99.90
16417;DHT22;8317;52.186;5.688;2023-08-21T01:10:22;18.30;99.90
16417;DHT22;8317;52.186;5.688;2023-08-21T01:13:04;18.20;99.90
16417;DHT22;8317;52.186;5.688;2023-08-21T01:15:33;18.20;99.90
16417;DHT22;8317;52.186;5.688;2023-08-21T01:18:00;18.20;99.90
16417;DHT22;8317;52.186;5.688;2023-08-21T01:20:29;18.10;99.90
16417;DHT22;8317;52.186;5.688;2023-08-21T01:22:56;18.20;99.90
16417;DHT22;8317;52.186;5.688;2023-08-21T01:25:25;18.20;99.90
16417;DHT22;8317;52.186;5.688;2023-08-21T01:27:52;18.20;99.90
16417;DHT22;8317;52.186;5.688;2023-08-21T01:30:19;18.10;99.90
16417;DHT22;8317;52.186;5.688;2023-08-21T01:32:50;18.10;99.90
16417;DHT22;8317;52.186;5.688;2023-08-21T01:35:20;18.10;99.90
16417;DHT22;8317;52.186;5.688;2023-08-21T01:37:48;18.10;99.90
16417;DHT22;8317;52.186;5.688;2023-08-21T01:40:20;18.10;99.90
16417;DHT22;8317;52.186;5.688;2023-08-21T01:42:49;18.00;99.90
16417;DHT22;8317;52.186;5.688;2023-08-21T01:45:16;18.10;99.90
16417;DHT22;8317;52.186;5.688;2023-08-21T01:47:43;18.10;99.90
16417;DHT22;8317;52.186;5.688;2023-08-21T01:50:10;18.10;99.90
16417;DHT22;8317;52.186;5.688;2023-08-21T01:52:37;18.10;99.90
16417;DHT22;8317;52.186;5.688;2023-08-21T01:55:05;18.10;99.90
16417;DHT22;8317;52.186;5.688;2023-08-21T01:57:33;18.10;99.90
16417;DHT22;8317;52.186;5.688;2023-08-21T02:00:01;18.00;99.90
16417;DHT22;8317;52.186;5.688;2023-08-21T02:02:30;18.10;99.90
16417;DHT22;8317;52.186;5.688;2023-08-21T02:04:57;18.10;99.90
16417;DHT22;8317;52.186;5.688;2023-08-21T02:07:23;18.10;99.90
16417;DHT22;8317;52.186;5.688;2023-08-21T02:09:50;18.10;99.90
16417;DHT22;8317;52.186;5.688;2023-08-21T02:12:17;18.10;99.90
16417;DHT22;8317;52.186;5.688;2023-08-21T02:14:44;18.10;99.90
16417;DHT22;8317;52.186;5.688;2023-08-21T02:17:12;18.10;99.90
16417;DHT22;8317;52.186;5.688;2023-08-21T02:19:39;18.00;99.90
16417;DHT22;8317;52.186;5.688;2023-08-21T02:22:06;18.00;99.90
16417;DHT22;8317;52.186;5.688;2023-08-21T02:24:33;18.00;99.90
16417;DHT22;8317;52.186;5.688;2023-08-21T02:27:00;18.00;99.90
16417;DHT22;8317;52.186;5.688;2023-08-21T02:29:28;18.00;99.90
16417;DHT22;8317;52.186;5.688;2023-08-21T02:31:55;17.90;99.90
16417;DHT22;8317;52.186;5.688;2023-08-21T02:34:23;17.90;99.90
16417;DHT22;8317;52.186;5.688;2023-08-21T02:36:50;17.90;99.90
16417;DHT22;8317;52.186;5.688;2023-08-21T02:39:17;17.90;99.90
16417;DHT22;8317;52.186;5.688;2023-08-21T02:41:44;17.90;99.90
16417;DHT22;8317;52.186;5.688;2023-08-21T02:44:11;17.90;99.90
16417;DHT22;8317;52.186;5.688;2023-08-21T02:46:38;17.90;99.90
16417;DHT22;8317;52.186;5.688;2023-08-21T02:49:05;17.90;99.90
16417;DHT22;8317;52.186;5.688;2023-08-21T02:51:33;17.90;99.90
16417;DHT22;8317;52.186;5.688;2023-08-21T02:54:00;17.90;99.90
16417;DHT22;8317;52.186;5.688;2023-08-21T02:56:27;17.90;99.90
16417;DHT22;8317;52.186;5.688;2023-08-21T02:58:54;17.90;99.90
16417;DHT22;8317;52.186;5.688;2023-08-21T03:01:21;17.80;99.90
16417;DHT22;8317;52.186;5.688;2023-08-21T03:03:48;17.90;99.90
16417;DHT22;8317;52.186;5.688;2023-08-21T03:06:15;17.80;99.90
16417;DHT22;8317;52.186;5.688;2023-08-21T03:08:43;17.80;99.90
16417;DHT22;8317;52.186;5.688;2023-08-21T03:11:10;17.80;99.90
16417;DHT22;8317;52.186;5.688;2023-08-21T03:13:38;17.80;99.90
16417;DHT22;8317;52.186;5.688;2023-08-21T03:16:05;17.80;99.90
16417;DHT22;8317;52.186;5.688;2023-08-21T03:18:32;17.90;99.90
16417;DHT22;8317;52.186;5.688;2023-08-21T03:20:59;17.90;99.90
16417;DHT22;8317;52.186;5.688;2023-08-21T03:23:26;17.80;99.90
16417;DHT22;8317;52.186;5.688;2023-08-21T03:25:54;17.90;99.90
16417;DHT22;8317;52.186;5.688;2023-08-21T03:28:21;17.80;99.90
16417;DHT22;8317;52.186;5.688;2023-08-21T03:30:48;17.80;99.90
16417;DHT22;8317;52.186;5.688;2023-08-21T03:33:15;17.80;99.90
16417;DHT22;8317;52.186;5.688;2023-08-21T03:35:41;17.80;99.90
16417;DHT22;8317;52.186;5.688;2023-08-21T03:38:08;17.80;99.90
16417;DHT22;8317;52.186;5.688;2023-08-21T03:40:35;17.70;99.90
16417;DHT22;8317;52.186;5.688;2023-08-21T03:43:04;17.80;99.90
16417;DHT22;8317;52.186;5.688;2023-08-21T03:45:30;17.80;99.90
16417;DHT22;8317;52.186;5.688;2023-08-21T03:47:57;17.70;99.90
16417;DHT22;8317;52.186;5.688;2023-08-21T03:50:24;17.80;99.90
16417;DHT22;8317;52.186;5.688;2023-08-21T03:52:51;17.80;99.90
16417;DHT22;8317;52.186;5.688;2023-08-21T03:55:18;17.70;99.90
16417;DHT22;8317;52.186;5.688;2023-08-21T03:57:45;17.60;99.90
16417;DHT22;8317;52.186;5.688;2023-08-21T04:00:14;17.50;99.90
16417;DHT22;8317;52.186;5.688;2023-08-21T04:02:42;17.50;99.90
16417;DHT22;8317;52.186;5.688;2023-08-21T04:05:09;17.50;99.90
16417;DHT22;8317;52.186;5.688;2023-08-21T04:10:39;17.40;99.90
16417;DHT22;8317;52.186;5.688;2023-08-21T04:13:07;17.30;99.90
16417;DHT22;8317;52.186;5.688;2023-08-21T04:15:35;17.30;99.90
16417;DHT22;8317;52.186;5.688;2023-08-21T04:18:03;17.30;99.90
16417;DHT22;8317;52.186;5.688;2023-08-21T04:20:31;17.20;99.90
16417;DHT22;8317;52.186;5.688;2023-08-21T04:22:58;17.20;99.90
16417;DHT22;8317;52.186;5.688;2023-08-21T04:25:25;17.20;99.90
16417;DHT22;8317;52.186;5.688;2023-08-21T04:27:51;17.10;99.90
16417;DHT22;8317;52.186;5.688;2023-08-21T04:30:18;17.10;99.90
16417;DHT22;8317;52.186;5.688;2023-08-21T04:32:48;17.10;99.90
16417;DHT22;8317;52.186;5.688;2023-08-21T04:35:15;17.10;99.90
16417;DHT22;8317;52.186;5.688;2023-08-21T04:37:45;17.10;99.90
16417;DHT22;8317;52.186;5.688;2023-08-21T04:40:13;17.20;99.90
16417;DHT22;8317;52.186;5.688;2023-08-21T04:42:40;17.20;99.90
16417;DHT22;8317;52.186;5.688;2023-08-21T04:45:08;17.20;99.90
16417;DHT22;8317;52.186;5.688;2023-08-21T04:47:35;17.10;99.90
16417;DHT22;8317;52.186;5.688;2023-08-21T04:50:03;17.10;99.90
16417;DHT22;8317;52.186;5.688;2023-08-21T04:52:30;17.10;99.90
16417;DHT22;8317;52.186;5.688;2023-08-21T04:54:57;17.10;99.90
16417;DHT22;8317;52.186;5.688;2023-08-21T04:57:24;17.20;99.90
16417;DHT22;8317;52.186;5.688;2023-08-21T04:59:51;17.20;99.90
16417;DHT22;8317;52.186;5.688;2023-08-21T05:02:18;17.20;99.90
16417;DHT22;8317;52.186;5.688;2023-08-21T05:04:45;17.20;99.90
16417;DHT22;8317;52.186;5.688;2023-08-21T05:07:13;17.20;99.90
16417;DHT22;8317;52.186;5.688;2023-08-21T05:09:41;17.20;99.90
16417;DHT22;8317;52.186;5.688;2023-08-21T05:12:08;17.20;99.90
16417;DHT22;8317;52.186;5.688;2023-08-21T05:14:35;17.20;99.90
16417;DHT22;8317;52.186;5.688;2023-08-21T05:17:02;17.20;99.90
16417;DHT22;8317;52.186;5.688;2023-08-21T05:19:29;17.30;99.90
16417;DHT22;8317;52.186;5.688;2023-08-21T05:21:56;17.30;99.90
16417;DHT22;8317;52.186;5.688;2023-08-21T05:24:34;17.40;99.90
16417;DHT22;8317;52.186;5.688;2023-08-21T05:27:01;17.40;99.90
16417;DHT22;8317;52.186;5.688;2023-08-21T05:29:30;17.40;99.90
16417;DHT22;8317;52.186;5.688;2023-08-21T05:31:57;17.40;99.90
16417;DHT22;8317;52.186;5.688;2023-08-21T05:34:23;17.40;99.90
16417;DHT22;8317;52.186;5.688;2023-08-21T05:36:51;17.40;99.90
16417;DHT22;8317;52.186;5.688;2023-08-21T05:39:20;17.50;99.90
16417;DHT22;8317;52.186;5.688;2023-08-21T05:41:48;17.50;99.90
16417;DHT22;8317;52.186;5.688;2023-08-21T05:44:15;17.50;99.90
16417;DHT22;8317;52.186;5.688;2023-08-21T05:46:42;17.40;99.90
16417;DHT22;8317;52.186;5.688;2023-08-21T05:49:08;17.50;99.90
16417;DHT22;8317;52.186;5.688;2023-08-21T05:51:35;17.50;99.90
16417;DHT22;8317;52.186;5.688;2023-08-21T05:54:02;17.50;99.90
16417;DHT22;8317;52.186;5.688;2023-08-21T05:56:29;17.50;99.90
16417;DHT22;8317;52.186;5.688;2023-08-21T05:58:57;17.60;99.90
16417;DHT22;8317;52.186;5.688;2023-08-21T06:01:24;17.60;99.90
16417;DHT22;8317;52.186;5.688;2023-08-21T06:03:51;17.70;99.90
16417;DHT22;8317;52.186;5.688;2023-08-21T06:06:18;17.70;99.90
16417;DHT22;8317;52.186;5.688;2023-08-21T06:08:45;17.70;99.90
16417;DHT22;8317;52.186;5.688;2023-08-21T06:11:12;17.60;99.90
16417;DHT22;8317;52.186;5.688;2023-08-21T06:13:40;17.60;99.90
16417;DHT22;8317;52.186;5.688;2023-08-21T06:16:08;17.50;99.90
16417;DHT22;8317;52.186;5.688;2023-08-21T06:18:35;17.50;99.90
16417;DHT22;8317;52.186;5.688;2023-08-21T06:21:02;17.60;99.90
16417;DHT22;8317;52.186;5.688;2023-08-21T06:23:29;17.80;99.90
16417;DHT22;8317;52.186;5.688;2023-08-21T06:25:56;17.90;99.90
16417;DHT22;8317;52.186;5.688;2023-08-21T06:28:22;18.10;99.90
16417;DHT22;8317;52.186;5.688;2023-08-21T06:30:55;18.30;99.90
16417;DHT22;8317;52.186;5.688;2023-08-21T06:33:24;18.30;99.90
16417;DHT22;8317;52.186;5.688;2023-08-21T06:35:51;18.40;99.90
16417;DHT22;8317;52.186;5.688;2023-08-21T06:38:18;18.50;99.90
16417;DHT22;8317;52.186;5.688;2023-08-21T06:40:45;18.70;99.90
16417;DHT22;8317;52.186;5.688;2023-08-21T06:43:12;18.80;99.90
16417;DHT22;8317;52.186;5.688;2023-08-21T06:45:39;18.90;99.90
16417;DHT22;8317;52.186;5.688;2023-08-21T06:48:06;19.10;99.90
16417;DHT22;8317;52.186;5.688;2023-08-21T06:50:36;19.30;99.90
16417;DHT22;8317;52.186;5.688;2023-08-21T06:53:03;19.60;99.90
16417;DHT22;8317;52.186;5.688;2023-08-21T06:55:30;19.90;99.90
16417;DHT22;8317;52.186;5.688;2023-08-21T06:57:57;20.20;99.90
16417;DHT22;8317;52.186;5.688;2023-08-21T07:00:24;20.40;99.90
16417;DHT22;8317;52.186;5.688;2023-08-21T07:02:51;20.60;99.90
16417;DHT22;8317;52.186;5.688;2023-08-21T07:05:18;20.80;99.90
16417;DHT22;8317;52.186;5.688;2023-08-21T07:07:46;21.10;99.90
16417;DHT22;8317;52.186;5.688;2023-08-21T07:10:13;21.30;99.90
16417;DHT22;8317;52.186;5.688;2023-08-21T07:12:40;21.10;99.90
16417;DHT22;8317;52.186;5.688;2023-08-21T07:15:08;21.00;99.90
16417;DHT22;8317;52.186;5.688;2023-08-21T07:17:35;21.20;99.90
16417;DHT22;8317;52.186;5.688;2023-08-21T07:20:02;21.40;99.90
16417;DHT22;8317;52.186;5.688;2023-08-21T07:22:29;21.60;99.90
16417;DHT22;8317;52.186;5.688;2023-08-21T07:24:57;21.80;99.90
16417;DHT22;8317;52.186;5.688;2023-08-21T07:27:28;22.10;99.90
16417;DHT22;8317;52.186;5.688;2023-08-21T07:29:55;22.10;99.90
16417;DHT22;8317;52.186;5.688;2023-08-21T07:32:22;22.00;99.90
16417;DHT22;8317;52.186;5.688;2023-08-21T07:34:52;22.10;99.90
16417;DHT22;8317;52.186;5.688;2023-08-21T07:37:19;22.10;99.90
16417;DHT22;8317;52.186;5.688;2023-08-21T07:39:45;22.30;99.90
16417;DHT22;8317;52.186;5.688;2023-08-21T07:42:14;22.40;99.90
16417;DHT22;8317;52.186;5.688;2023-08-21T07:44:41;22.60;99.90
16417;DHT22;8317;52.186;5.688;2023-08-21T07:47:08;22.70;99.90
16417;DHT22;8317;52.186;5.688;2023-08-21T07:49:35;22.80;99.90
16417;DHT22;8317;52.186;5.688;2023-08-21T07:52:03;23.10;99.90
16417;DHT22;8317;52.186;5.688;2023-08-21T07:54:30;23.30;99.90
16417;DHT22;8317;52.186;5.688;2023-08-21T07:56:57;23.50;99.90
16417;DHT22;8317;52.186;5.688;2023-08-21T07:59:25;23.50;99.90
16417;DHT22;8317;52.186;5.688;2023-08-21T08:01:52;23.50;99.90
16417;DHT22;8317;52.186;5.688;2023-08-21T08:04:19;23.70;99.90
16417;DHT22;8317;52.186;5.688;2023-08-21T08:06:46;23.80;99.90
16417;DHT22;8317;52.186;5.688;2023-08-21T08:09:13;24.00;99.90
16417;DHT22;8317;52.186;5.688;2023-08-21T08:11:40;24.20;99.90
16417;DHT22;8317;52.186;5.688;2023-08-21T08:14:07;24.40;99.90
16417;DHT22;8317;52.186;5.688;2023-08-21T08:16:35;24.40;99.90
16417;DHT22;8317;52.186;5.688;2023-08-21T08:19:02;24.60;99.90
16417;DHT22;8317;52.186;5.688;2023-08-21T08:21:29;24.70;99.90
16417;DHT22;8317;52.186;5.688;2023-08-21T08:23:56;24.80;99.90
16417;DHT22;8317;52.186;5.688;2023-08-21T08:26:23;24.90;99.90
16417;DHT22;8317;52.186;5.688;2023-08-21T08:28:50;24.60;99.90
16417;DHT22;8317;52.186;5.688;2023-08-21T08:31:17;24.80;99.90
16417;DHT22;8317;52.186;5.688;2023-08-21T08:33:45;25.00;99.90
16417;DHT22;8317;52.186;5.688;2023-08-21T08:36:13;24.80;99.90
16417;DHT22;8317;52.186;5.688;2023-08-21T08:38:40;24.70;99.90
16417;DHT22;8317;52.186;5.688;2023-08-21T08:41:12;24.80;99.90
16417;DHT22;8317;52.186;5.688;2023-08-21T08:43:41;24.50;99.90
16417;DHT22;8317;52.186;5.688;2023-08-21T08:46:08;24.40;99.90
16417;DHT22;8317;52.186;5.688;2023-08-21T08:48:35;23.80;99.90
16417;DHT22;8317;52.186;5.688;2023-08-21T08:51:03;23.70;99.90
16417;DHT22;8317;52.186;5.688;2023-08-21T08:53:30;23.80;99.90
16417;DHT22;8317;52.186;5.688;2023-08-21T08:55:58;23.80;99.90
16417;DHT22;8317;52.186;5.688;2023-08-21T08:58:25;24.00;99.90
16417;DHT22;8317;52.186;5.688;2023-08-21T09:00:53;24.40;99.90
16417;DHT22;8317;52.186;5.688;2023-08-21T09:03:20;24.40;99.90
16417;DHT22;8317;52.186;5.688;2023-08-21T09:05:47;24.40;99.90
16417;DHT22;8317;52.186;5.688;2023-08-21T09:08:16;24.70;99.90
16417;DHT22;8317;52.186;5.688;2023-08-21T09:10:43;24.90;99.90
16417;DHT22;8317;52.186;5.688;2023-08-21T09:13:15;25.00;99.90
16417;DHT22;8317;52.186;5.688;2023-08-21T09:15:43;25.40;99.90
16417;DHT22;8317;52.186;5.688;2023-08-21T09:18:10;25.80;99.90
16417;DHT22;8317;52.186;5.688;2023-08-21T09:20:38;26.00;99.90
16417;DHT22;8317;52.186;5.688;2023-08-21T09:23:05;25.90;99.90
16417;DHT22;8317;52.186;5.688;2023-08-21T09:25:38;26.10;99.90
16417;DHT22;8317;52.186;5.688;2023-08-21T09:28:06;26.30;99.90
16417;DHT22;8317;52.186;5.688;2023-08-21T09:30:46;26.30;99.90
16417;DHT22;8317;52.186;5.688;2023-08-21T09:33:14;26.40;99.90
16417;DHT22;8317;52.186;5.688;2023-08-21T09:35:43;26.20;99.90
16417;DHT22;8317;52.186;5.688;2023-08-21T09:38:11;26.50;99.90
16417;DHT22;8317;52.186;5.688;2023-08-21T09:40:43;27.00;99.90
16417;DHT22;8317;52.186;5.688;2023-08-21T09:43:11;26.70;99.90
16417;DHT22;8317;52.186;5.688;2023-08-21T09:45:38;27.10;99.90
16417;DHT22;8317;52.186;5.688;2023-08-21T09:48:06;27.50;99.90
16417;DHT22;8317;52.186;5.688;2023-08-21T09:50:34;27.30;99.90
16417;DHT22;8317;52.186;5.688;2023-08-21T09:53:02;27.60;99.90
16417;DHT22;8317;52.186;5.688;2023-08-21T09:55:31;27.80;99.90
16417;DHT22;8317;52.186;5.688;2023-08-21T09:58:00;27.90;99.90
16417;DHT22;8317;52.186;5.688;2023-08-21T10:00:31;28.00;99.90
16417;DHT22;8317;52.186;5.688;2023-08-21T10:03:01;27.90;99.90
16417;DHT22;8317;52.186;5.688;2023-08-21T10:05:29;27.80;99.90
16417;DHT22;8317;52.186;5.688;2023-08-21T10:08:00;27.80;99.90
16417;DHT22;8317;52.186;5.688;2023-08-21T10:10:29;28.10;99.90
16417;DHT22;8317;52.186;5.688;2023-08-21T10:12:57;28.70;99.90
16417;DHT22;8317;52.186;5.688;2023-08-21T10:15:27;28.90;99.90
16417;DHT22;8317;52.186;5.688;2023-08-21T10:17:54;28.70;99.90
16417;DHT22;8317;52.186;5.688;2023-08-21T10:20:22;28.50;99.90
16417;DHT22;8317;52.186;5.688;2023-08-21T10:22:52;28.40;99.90
16417;DHT22;8317;52.186;5.688;2023-08-21T10:25:21;28.20;99.90
16417;DHT22;8317;52.186;5.688;2023-08-21T10:27:50;28.50;99.90
16417;DHT22;8317;52.186;5.688;2023-08-21T10:30:21;29.40;99.90
16417;DHT22;8317;52.186;5.688;2023-08-21T10:32:51;29.40;99.90
16417;DHT22;8317;52.186;5.688;2023-08-21T10:35:19;28.90;99.90
16417;DHT22;8317;52.186;5.688;2023-08-21T10:38:06;28.70;99.90
16417;DHT22;8317;52.186;5.688;2023-08-21T10:40:33;29.00;99.90
16417;DHT22;8317;52.186;5.688;2023-08-21T10:43:01;28.80;99.90
16417;DHT22;8317;52.186;5.688;2023-08-21T10:45:29;28.80;99.90
16417;DHT22;8317;52.186;5.688;2023-08-21T10:47:58;29.00;99.90
16417;DHT22;8317;52.186;5.688;2023-08-21T10:50:26;29.60;99.90
16417;DHT22;8317;52.186;5.688;2023-08-21T10:52:53;29.30;99.90
16417;DHT22;8317;52.186;5.688;2023-08-21T10:55:20;28.90;99.90
16417;DHT22;8317;52.186;5.688;2023-08-21T10:57:48;28.80;99.90
16417;DHT22;8317;52.186;5.688;2023-08-21T11:00:16;28.60;99.90
16417;DHT22;8317;52.186;5.688;2023-08-21T11:02:44;28.20;99.90
16417;DHT22;8317;52.186;5.688;2023-08-21T11:05:13;28.40;99.90
16417;DHT22;8317;52.186;5.688;2023-08-21T11:07:42;29.10;99.90
16417;DHT22;8317;52.186;5.688;2023-08-21T11:10:11;29.80;99.90
16417;DHT22;8317;52.186;5.688;2023-08-21T11:12:48;29.60;99.90
16417;DHT22;8317;52.186;5.688;2023-08-21T11:15:15;29.70;99.90
16417;DHT22;8317;52.186;5.688;2023-08-21T11:17:50;29.70;99.90
16417;DHT22;8317;52.186;5.688;2023-08-21T11:20:18;29.40;99.90
16417;DHT22;8317;52.186;5.688;2023-08-21T11:22:45;29.90;99.90
16417;DHT22;8317;52.186;5.688;2023-08-21T11:25:14;30.00;99.90
16417;DHT22;8317;52.186;5.688;2023-08-21T11:27:41;29.70;99.90
16417;DHT22;8317;52.186;5.688;2023-08-21T11:30:11;30.10;99.90
16417;DHT22;8317;52.186;5.688;2023-08-21T11:32:38;29.80;99.90
16417;DHT22;8317;52.186;5.688;2023-08-21T11:35:05;30.00;99.90
16417;DHT22;8317;52.186;5.688;2023-08-21T11:37:34;30.10;99.90
16417;DHT22;8317;52.186;5.688;2023-08-21T11:40:07;30.20;99.90
16417;DHT22;8317;52.186;5.688;2023-08-21T11:42:34;30.30;99.90
16417;DHT22;8317;52.186;5.688;2023-08-21T11:45:02;30.10;99.90
16417;DHT22;8317;52.186;5.688;2023-08-21T11:47:31;30.40;99.90
16417;DHT22;8317;52.186;5.688;2023-08-21T11:50:02;30.40;99.90
16417;DHT22;8317;52.186;5.688;2023-08-21T11:52:29;30.30;99.90
16417;DHT22;8317;52.186;5.688;2023-08-21T11:54:59;30.30;99.90
16417;DHT22;8317;52.186;5.688;2023-08-21T11:57:25;30.30;99.90
16417;DHT22;8317;52.186;5.688;2023-08-21T11:59:54;30.40;99.90
16417;DHT22;8317;52.186;5.688;2023-08-21T12:02:23;30.50;99.90
16417;DHT22;8317;52.186;5.688;2023-08-21T12:04:54;30.10;99.90
16417;DHT22;8317;52.186;5.688;2023-08-21T12:07:25;29.40;99.90
16417;DHT22;8317;52.186;5.688;2023-08-21T12:09:51;29.40;99.90
16417;DHT22;8317;52.186;5.688;2023-08-21T12:12:20;29.50;99.90
16417;DHT22;8317;52.186;5.688;2023-08-21T12:14:47;29.60;99.90
16417;DHT22;8317;52.186;5.688;2023-08-21T12:17:13;29.70;99.90
16417;DHT22;8317;52.186;5.688;2023-08-21T12:19:40;29.70;99.90
16417;DHT22;8317;52.186;5.688;2023-08-21T12:22:08;29.70;99.90
16417;DHT22;8317;52.186;5.688;2023-08-21T12:24:36;29.70;99.90
16417;DHT22;8317;52.186;5.688;2023-08-21T12:27:03;29.00;99.90
16417;DHT22;8317;52.186;5.688;2023-08-21T12:29:32;28.70;99.90
16417;DHT22;8317;52.186;5.688;2023-08-21T12:31:59;28.50;99.90
16417;DHT22;8317;52.186;5.688;2023-08-21T12:34:26;28.80;99.90
16417;DHT22;8317;52.186;5.688;2023-08-21T12:36:53;28.90;99.90
16417;DHT22;8317;52.186;5.688;2023-08-21T12:39:20;28.80;99.90
16417;DHT22;8317;52.186;5.688;2023-08-21T12:41:47;28.80;99.90
16417;DHT22;8317;52.186;5.688;2023-08-21T12:44:14;29.00;99.90
16417;DHT22;8317;52.186;5.688;2023-08-21T12:46:43;29.10;99.90
16417;DHT22;8317;52.186;5.688;2023-08-21T12:49:10;29.50;99.90
16417;DHT22;8317;52.186;5.688;2023-08-21T12:51:37;29.50;99.90
16417;DHT22;8317;52.186;5.688;2023-08-21T12:54:04;29.50;99.90
16417;DHT22;8317;52.186;5.688;2023-08-21T12:56:31;29.10;99.90
16417;DHT22;8317;52.186;5.688;2023-08-21T12:58:58;29.00;99.90
16417;DHT22;8317;52.186;5.688;2023-08-21T13:01:26;28.80;99.90
16417;DHT22;8317;52.186;5.688;2023-08-21T13:03:54;28.20;99.90
16417;DHT22;8317;52.186;5.688;2023-08-21T13:06:21;28.00;99.90
16417;DHT22;8317;52.186;5.688;2023-08-21T13:08:48;27.50;99.90
16417;DHT22;8317;52.186;5.688;2023-08-21T13:11:15;27.40;99.90
16417;DHT22;8317;52.186;5.688;2023-08-21T13:13:42;27.80;99.90
16417;DHT22;8317;52.186;5.688;2023-08-21T13:16:09;28.20;99.90
16417;DHT22;8317;52.186;5.688;2023-08-21T13:18:36;28.10;99.90
16417;DHT22;8317;52.186;5.688;2023-08-21T13:21:04;28.70;99.90
16417;DHT22;8317;52.186;5.688;2023-08-21T13:23:31;28.70;99.90
16417;DHT22;8317;52.186;5.688;2023-08-21T13:25:59;28.60;99.90
16417;DHT22;8317;52.186;5.688;2023-08-21T13:28:29;28.80;99.90
16417;DHT22;8317;52.186;5.688;2023-08-21T13:30:57;28.70;99.90
16417;DHT22;8317;52.186;5.688;2023-08-21T13:33:23;28.90;99.90
16417;DHT22;8317;52.186;5.688;2023-08-21T13:35:50;28.60;99.90
16417;DHT22;8317;52.186;5.688;2023-08-21T13:38:19;28.40;99.90
16417;DHT22;8317;52.186;5.688;2023-08-21T13:40:46;28.40;99.90
16417;DHT22;8317;52.186;5.688;2023-08-21T13:43:12;28.60;99.90
16417;DHT22;8317;52.186;5.688;2023-08-21T13:45:39;28.50;99.90
16417;DHT22;8317;52.186;5.688;2023-08-21T13:48:06;28.40;99.90
16417;DHT22;8317;52.186;5.688;2023-08-21T13:50:34;28.30;99.90
16417;DHT22;8317;52.186;5.688;2023-08-21T13:53:01;28.50;99.90
16417;DHT22;8317;52.186;5.688;2023-08-21T13:55:29;28.50;99.90
16417;DHT22;8317;52.186;5.688;2023-08-21T13:57:56;28.40;99.90
16417;DHT22;8317;52.186;5.688;2023-08-21T14:00:23;28.10;99.90
16417;DHT22;8317;52.186;5.688;2023-08-21T14:02:50;28.00;99.90
16417;DHT22;8317;52.186;5.688;2023-08-21T14:05:17;27.60;99.90
16417;DHT22;8317;52.186;5.688;2023-08-21T14:07:44;27.20;99.90
16417;DHT22;8317;52.186;5.688;2023-08-21T14:10:11;27.30;99.90
16417;DHT22;8317;52.186;5.688;2023-08-21T14:12:41;27.30;99.90
16417;DHT22;8317;52.186;5.688;2023-08-21T14:15:08;27.30;99.90
16417;DHT22;8317;52.186;5.688;2023-08-21T14:17:35;27.10;99.90
16417;DHT22;8317;52.186;5.688;2023-08-21T14:20:02;27.20;99.90
16417;DHT22;8317;52.186;5.688;2023-08-21T14:22:29;27.10;99.90
16417;DHT22;8317;52.186;5.688;2023-08-21T14:24:57;27.00;99.90
16417;DHT22;8317;52.186;5.688;2023-08-21T14:27:24;27.10;99.90
16417;DHT22;8317;52.186;5.688;2023-08-21T14:29:52;27.20;99.90
16417;DHT22;8317;52.186;5.688;2023-08-21T14:32:19;27.00;99.90
16417;DHT22;8317;52.186;5.688;2023-08-21T14:34:46;26.70;99.90
16417;DHT22;8317;52.186;5.688;2023-08-21T14:37:13;26.80;99.90
16417;DHT22;8317;52.186;5.688;2023-08-21T14:39:41;26.80;99.90
16417;DHT22;8317;52.186;5.688;2023-08-21T14:42:08;27.10;99.90
16417;DHT22;8317;52.186;5.688;2023-08-21T14:44:35;27.50;99.90
16417;DHT22;8317;52.186;5.688;2023-08-21T14:47:04;27.70;99.90
16417;DHT22;8317;52.186;5.688;2023-08-21T14:49:31;27.60;99.90
16417;DHT22;8317;52.186;5.688;2023-08-21T14:51:58;27.80;99.90
16417;DHT22;8317;52.186;5.688;2023-08-21T14:54:25;27.60;99.90
16417;DHT22;8317;52.186;5.688;2023-08-21T14:56:52;27.90;99.90
16417;DHT22;8317;52.186;5.688;2023-08-21T14:59:19;27.80;99.90
16417;DHT22;8317;52.186;5.688;2023-08-21T15:01:46;27.80;99.90
16417;DHT22;8317;52.186;5.688;2023-08-21T15:04:14;27.70;99.90
16417;DHT22;8317;52.186;5.688;2023-08-21T15:06:41;27.70;99.90
16417;DHT22;8317;52.186;5.688;2023-08-21T15:09:08;27.60;99.90
16417;DHT22;8317;52.186;5.688;2023-08-21T15:11:35;27.30;99.90
16417;DHT22;8317;52.186;5.688;2023-08-21T15:14:02;27.20;99.90
16417;DHT22;8317;52.186;5.688;2023-08-21T15:16:30;26.80;99.90
16417;DHT22;8317;52.186;5.688;2023-08-21T15:18:57;26.90;99.90
16417;DHT22;8317;52.186;5.688;2023-08-21T15:21:25;26.70;99.90
16417;DHT22;8317;52.186;5.688;2023-08-21T15:23:52;26.60;99.90
16417;DHT22;8317;52.186;5.688;2023-08-21T15:26:19;26.70;99.90
16417;DHT22;8317;52.186;5.688;2023-08-21T15:28:47;26.80;99.90
16417;DHT22;8317;52.186;5.688;2023-08-21T15:31:13;26.70;99.90
16417;DHT22;8317;52.186;5.688;2023-08-21T15:33:41;26.70;99.90
16417;DHT22;8317;52.186;5.688;2023-08-21T15:36:08;26.40;99.90
16417;DHT22;8317;52.186;5.688;2023-08-21T15:38:36;26.30;99.90
16417;DHT22;8317;52.186;5.688;2023-08-21T15:41:03;26.20;99.90
16417;DHT22;8317;52.186;5.688;2023-08-21T15:43:30;26.10;99.90
16417;DHT22;8317;52.186;5.688;2023-08-21T15:45:57;26.20;99.90
16417;DHT22;8317;52.186;5.688;2023-08-21T15:48:24;26.30;99.90
16417;DHT22;8317;52.186;5.688;2023-08-21T15:50:51;26.30;99.90